タヒチ島 の空港の天気 - METARとTAF

タヒチ・ファアア国際空港 ( NTAA / PPT ) - フランス領ポリネシア タヒチ島
飛行場実況気象(Metar)
観測時間11/12 15:30 TAHT (11/13 01:30 UTC)
風向・風速北 4m/s
視程10km以上
天気現象
少しの雲 雲底高度 790m
気温31℃
湿度55%
気圧1010hPa
METARNTAA 130130Z 01007KT 340V040 9999 FEW026 31/21 Q1010 NOSIG
過去の天気等 Google飛行場航空写真 Wunderground天気予報

過去48時間のMETAR

飛行場予報(TAF)
発表時間: 11/12 13:00 TAHT (11/12 23:00 UTC)
予報対象時間: 12日14時 TAHT ~ 13日20時 TAHT
風向・風速不定 2m/s
視程10km以上
少しの雲 雲底高度 700m
全天の4割程度の雲 雲底高度 1520m
TAF NTAA 122300Z 1300/1406 VRB04KT 9999 FEW023 SCT050